Time;durP1;ratioP1;P1;durP2;ratioP2;P2;SDS_P1;SDS_P2;PMS_P1;PMS_P2;Temp;Humidity;BMP_temperature;BMP_pressure;BME280_temperature;BME280_humidity;BME280_pressure;Samples;Min_cycle;Max_cycle;Signal;HPM_P1;HPM_P2
2022/12/26 00:02:53;;;;;;;;;;;;;;;;;;;;;
2022/12/26 00:06:03;;;;;;;0.03;0.03;;;;;;;7.95;100.00;99493.13;5984134;24;20028;-80
2022/12/26 00:08:33;;;;;;;0.00;0.00;;;;;;;8.19;100.00;99534.28;5941703;23;20008;-79
2022/12/26 00:11:37;;;;;;;0.00;0.00;;;;;;;8.30;100.00;99496.13;6045627;23;20022;-80
2022/12/26 00:18:37;;;;;;;;;;;;;;;;;;;;;
2022/12/26 00:27:22;;;;;;;0.00;0.00;;;;;;;8.28;100.00;99471.06;6000694;23;20003;-83
2022/12/26 00:29:52;;;;;;;0.00;0.00;;;;;;;8.17;100.00;99446.56;6071147;23;20195;-81
2022/12/26 00:33:01;;;;;;;0.00;0.00;;;;;;;8.24;100.00;99450.94;6070671;23;20017;-80
2022/12/26 00:36:30;;;;;;;;;;;;;;;;;;;;;
2022/12/26 00:42:21;;;;;;;;;;;;;;;;;;;;;
2022/12/26 00:45:23;;;;;;;0.10;0.10;;;;;;;8.34;100.00;99437.31;6217862;23;20435;-81
2022/12/26 00:47:57;;;;;;;0.00;0.00;;;;;;;8.50;100.00;99463.44;6192570;23;20008;-81
2022/12/26 00:53:14;;;;;;;0.00;0.00;;;;;;;8.50;100.00;99462.63;6099905;23;20068;-83
2022/12/26 01:00:21;;;;;;;;;;;;;;;;;;;;;
2022/12/26 01:03:00;;;;;;;;;;;;;;;;;;;;;
2022/12/26 01:06:49;;;;;;;;;;;;;;;;;;;;;
2022/12/26 01:09:40;;;;;;;0.10;0.10;;;;;;;8.38;100.00;99454.69;6065669;23;20090;-76
2022/12/26 01:12:11;;;;;;;0.00;0.00;;;;;;;8.30;100.00;99441.66;6172274;23;20011;-76
2022/12/26 01:14:37;;;;;;;0.00;0.00;;;;;;;8.26;100.00;99451.47;6182041;23;20084;-77
2022/12/26 01:17:02;;;;;;;0.08;0.08;;;;;;;8.30;100.00;99485.25;6177178;23;20031;-77
2022/12/26 01:19:27;;;;;;;0.00;0.00;;;;;;;8.37;100.00;99496.69;6106955;23;20005;-78
2022/12/26 01:21:55;;;;;;;0.00;0.00;;;;;;;8.30;100.00;99474.34;6130352;23;20486;-77
2022/12/26 01:24:21;;;;;;;0.00;0.00;;;;;;;8.30;100.00;99496.94;6144524;23;20076;-78
2022/12/26 01:26:54;;;;;;;0.00;0.00;;;;;;;8.27;100.00;99513.03;6180642;23;20428;-76
2022/12/26 01:29:19;;;;;;;0.00;0.00;;;;;;;8.14;100.00;99504.31;6103595;23;20064;-77
2022/12/26 01:31:45;;;;;;;0.00;0.00;;;;;;;8.17;100.00;99513.84;6130472;23;20017;-76
2022/12/26 01:34:12;;;;;;;0.00;0.00;;;;;;;8.15;100.00;99516.03;6126567;23;20009;-76
2022/12/26 01:36:38;;;;;;;0.00;0.00;;;;;;;8.09;100.00;99509.75;6153472;23;20011;-78
2022/12/26 01:39:03;;;;;;;0.00;0.00;;;;;;;8.17;100.00;99522.81;6106349;23;20009;-77
2022/12/26 01:41:32;;;;;;;0.00;0.00;;;;;;;8.24;100.00;99530.72;6153590;23;20005;-78
2022/12/26 01:44:08;;;;;;;0.00;0.00;;;;;;;8.45;100.00;99536.19;6157329;23;20036;-77
2022/12/26 01:46:44;;;;;;;0.00;0.00;;;;;;;8.44;100.00;99529.94;6155750;23;20458;-78
2022/12/26 01:49:39;;;;;;;0.00;0.00;;;;;;;8.51;100.00;99557.72;6156428;23;20001;-77
2022/12/26 01:52:11;;;;;;;0.00;0.00;;;;;;;8.47;100.00;99540.28;6157228;23;20096;-78
2022/12/26 01:54:42;;;;;;;0.00;0.00;;;;;;;8.62;100.00;99555.00;6154615;23;20001;-77
2022/12/26 01:57:15;;;;;;;0.00;0.00;;;;;;;8.61;100.00;99553.34;6175600;23;20044;-79
2022/12/26 01:59:41;;;;;;;0.00;0.00;;;;;;;8.67;100.00;99554.97;6186813;23;19992;-77
2022/12/26 02:02:08;;;;;;;0.00;0.00;;;;;;;8.62;100.00;99547.63;6211745;23;20010;-75
2022/12/26 02:07:27;;;;;;;0.00;0.00;;;;;;;8.63;100.00;99559.34;6214769;23;20031;-78
2022/12/26 02:09:53;;;;;;;0.00;0.00;;;;;;;8.63;100.00;99564.78;6161591;23;20000;-77
2022/12/26 02:12:34;;;;;;;0.00;0.00;;;;;;;8.57;100.00;99588.50;6210763;23;20066;-76
2022/12/26 02:15:04;;;;;;;0.00;0.00;;;;;;;8.40;100.00;99591.47;6209193;23;20007;-77
2022/12/26 02:17:31;;;;;;;0.10;0.10;;;;;;;8.28;100.00;99590.91;6212046;23;20012;-76
2022/12/26 02:20:08;;;;;;;0.10;0.10;;;;;;;8.24;100.00;99596.09;6213588;23;20000;-76
2022/12/26 02:22:50;;;;;;;0.10;0.10;;;;;;;8.01;100.00;99603.66;6213157;23;20043;-77
2022/12/26 02:25:52;;;;;;;0.00;0.00;;;;;;;7.73;100.00;99624.03;6210405;23;20039;-76
2022/12/26 02:28:46;;;;;;;0.00;0.00;;;;;;;7.49;100.00;99629.91;6213579;23;20001;-77
2022/12/26 02:31:21;;;;;;;0.00;0.00;;;;;;;7.36;100.00;99635.84;6210329;23;20005;-77
2022/12/26 02:33:59;;;;;;;0.00;0.00;;;;;;;7.15;100.00;99638.44;6208921;23;20012;-77
2022/12/26 02:36:44;;;;;;;0.00;0.00;;;;;;;7.28;100.00;99660.81;6213260;23;20009;-76
2022/12/26 02:39:34;;;;;;;0.00;0.00;;;;;;;7.37;100.00;99667.38;6212958;23;20403;-75
2022/12/26 02:42:45;;;;;;;0.00;0.00;;;;;;;7.46;100.00;99662.25;6214506;23;20064;-75
2022/12/26 02:48:43;;;;;;;0.00;0.00;;;;;;;7.42;100.00;99674.78;6212267;23;20050;-76
2022/12/26 03:14:57;;;;;;;0.00;0.00;;;;;;;6.71;100.00;99763.66;6212482;23;20404;-77
2022/12/26 03:17:32;;;;;;;0.10;0.10;;;;;;;6.63;100.00;99751.34;6209697;23;20011;-76
2022/12/26 03:20:01;;;;;;;0.00;0.00;;;;;;;6.70;100.00;99775.63;6211206;23;19999;-77
2022/12/26 03:22:45;;;;;;;0.00;0.00;;;;;;;6.57;100.00;99770.56;6210442;23;20005;-77
2022/12/26 03:28:02;;;;;;;0.00;0.00;;;;;;;6.39;100.00;99761.69;6211969;23;20024;-77
2022/12/26 03:36:10;;;;;;;0.00;0.00;;;;;;;6.38;100.00;99768.22;6207702;23;20558;-77
2022/12/26 03:39:06;;;;;;;0.10;0.10;;;;;;;6.53;100.00;99796.63;6210430;23;20000;-77
2022/12/26 04:44:31;;;;;;;0.00;0.00;;;;;;;4.70;100.00;99911.69;6206762;23;20055;-77
2022/12/26 04:46:52;;;;;;;0.05;0.05;;;;;;;4.68;100.00;99936.31;6207659;23;20084;-76
2022/12/26 04:52:04;;;;;;;;;;;;;;;4.56;100.00;99962.59;6208625;23;20011;-76
2022/12/26 04:54:37;;;;;;;0.10;0.10;;;;;;;4.41;100.00;99967.66;6211551;23;20187;-75
2022/12/26 04:57:04;;;;;;;0.10;0.10;;;;;;;4.37;100.00;99976.25;6182141;23;20031;-76
2022/12/26 04:59:32;;;;;;;0.00;0.00;;;;;;;4.29;100.00;99982.06;6210787;23;20011;-76
2022/12/26 05:10:19;;;;;;;0.10;0.10;;;;;;;4.62;100.00;99986.03;6210203;23;20135;-76
2022/12/26 05:12:53;;;;;;;0.00;0.00;;;;;;;4.65;100.00;99984.72;6210126;23;20058;-77
2022/12/26 05:15:20;;;;;;;0.10;0.10;;;;;;;4.54;100.00;99984.50;6206366;23;20005;-76
2022/12/26 05:29:02;;;;;;;0.10;0.10;;;;;;;3.88;100.00;99996.47;6212909;23;20015;-76
2022/12/26 05:31:35;;;;;;;0.00;0.00;;;;;;;3.78;100.00;99992.47;6187576;23;20009;-77
2022/12/26 05:34:09;;;;;;;0.00;0.00;;;;;;;3.77;100.00;100008.91;6208330;23;20012;-77
2022/12/26 05:36:57;;;;;;;0.00;0.00;;;;;;;3.69;100.00;100015.47;6187761;23;20008;-77
2022/12/26 05:39:25;;;;;;;0.00;0.00;;;;;;;3.64;100.00;100021.56;6209683;23;20040;-77
2022/12/26 05:42:16;;;;;;;0.10;0.10;;;;;;;3.58;100.00;100027.09;6185088;23;20395;-76
2022/12/26 05:44:43;;;;;;;0.00;0.00;;;;;;;3.54;100.00;100028.59;6210442;23;20091;-76
2022/12/26 05:47:09;;;;;;;0.00;0.00;;;;;;;3.58;100.00;100052.22;6207747;23;20040;-77
2022/12/26 05:49:34;;;;;;;0.10;0.10;;;;;;;3.48;100.00;100049.25;6185201;23;20036;-77
2022/12/26 05:52:00;;;;;;;0.05;0.05;;;;;;;3.44;100.00;100053.47;6211692;23;20032;-78
2022/12/26 05:54:27;;;;;;;0.00;0.00;;;;;;;3.40;100.00;100054.97;6209117;23;20008;-77
2022/12/26 05:56:53;;;;;;;0.00;0.00;;;;;;;3.41;100.00;100062.03;6210832;23;20016;-77
2022/12/26 05:59:18;;;;;;;0.00;0.00;;;;;;;3.32;100.00;100070.44;6207485;23;20005;-78
2022/12/26 06:01:46;;;;;;;0.10;0.10;;;;;;;3.28;100.00;100071.94;6160096;23;20067;-77
2022/12/26 06:04:14;;;;;;;0.00;0.00;;;;;;;3.28;100.00;100084.63;6206142;23;20016;-78
2022/12/26 06:06:42;;;;;;;0.00;0.00;;;;;;;3.20;100.00;100083.06;6211193;23;20335;-77
2022/12/26 06:09:07;;;;;;;0.00;0.00;;;;;;;3.17;100.00;100091.63;6209604;23;20095;-77
2022/12/26 06:11:32;;;;;;;0.00;0.00;;;;;;;3.15;100.00;100080.19;6156328;23;20035;-77
2022/12/26 06:14:01;;;;;;;0.00;0.00;;;;;;;3.16;100.00;100081.88;6184393;23;20020;-77
2022/12/26 06:16:27;;;;;;;0.00;0.00;;;;;;;3.13;100.00;100095.81;6206142;23;20080;-77
2022/12/26 06:18:55;;;;;;;0.08;0.08;;;;;;;3.05;100.00;100088.00;6208045;23;20428;-76
2022/12/26 06:21:25;;;;;;;0.00;0.00;;;;;;;3.14;100.00;100114.50;6184476;23;20016;-76
2022/12/26 06:23:53;;;;;;;0.00;0.00;;;;;;;3.09;100.00;100105.44;6205746;23;20083;-76
2022/12/26 06:26:21;;;;;;;0.00;0.00;;;;;;;3.01;100.00;100111.13;6208534;23;20005;-77
2022/12/26 06:28:49;;;;;;;0.00;0.00;;;;;;;3.06;100.00;100128.31;6206531;23;20004;-76
2022/12/26 06:31:21;;;;;;;0.00;0.00;;;;;;;3.08;100.00;100136.19;6208676;23;20078;-77
2022/12/26 06:33:48;;;;;;;0.00;0.00;;;;;;;2.91;100.00;100123.28;6207760;23;20054;-76
2022/12/26 06:36:17;;;;;;;0.00;0.00;;;;;;;3.01;100.00;100136.28;6209134;23;20004;-76
2022/12/26 06:38:42;;;;;;;0.00;0.00;;;;;;;2.96;100.00;100141.50;6210148;23;20009;-78
2022/12/26 06:41:19;;;;;;;0.10;0.10;;;;;;;2.83;100.00;100130.81;6209931;23;20600;-77
2022/12/26 06:43:44;;;;;;;0.00;0.00;;;;;;;2.82;100.00;100130.00;6206473;23;20091;-76
2022/12/26 06:46:15;;;;;;;0.10;0.10;;;;;;;2.94;100.00;100160.63;6209784;23;20051;-77
2022/12/26 06:48:41;;;;;;;0.10;0.10;;;;;;;2.93;100.00;100155.47;6207806;23;20368;-77
2022/12/26 06:51:32;;;;;;;0.10;0.10;;;;;;;2.97;100.00;100165.59;6210710;23;20043;-77
2022/12/26 06:54:01;;;;;;;0.00;0.00;;;;;;;2.76;100.00;100142.53;6192332;23;20095;-77
2022/12/26 06:56:27;;;;;;;0.00;0.00;;;;;;;2.81;100.00;100160.75;6209500;22;20001;-79
2022/12/26 06:59:02;;;;;;;0.00;0.00;;;;;;;2.68;100.00;100155.47;6183303;23;20004;-76
2022/12/26 07:01:29;;;;;;;0.10;0.10;;;;;;;2.68;100.00;100166.28;6209124;23;20027;-77
2022/12/26 07:03:55;;;;;;;0.00;0.00;;;;;;;2.67;100.00;100186.22;6185014;23;20017;-76
2022/12/26 07:06:27;;;;;;;0.00;0.00;;;;;;;2.71;100.00;100200.94;6207616;23;20009;-77
2022/12/26 07:08:57;;;;;;;0.00;0.00;;;;;;;2.61;100.00;100187.91;6210449;23;20062;-76
2022/12/26 07:11:35;;;;;;;;;;;;;;;;;;;;;
2022/12/26 07:14:09;;;;;;;0.10;0.10;;;;;;;2.55;100.00;100216.59;6210450;23;20076;-76
2022/12/26 07:16:40;;;;;;;0.00;0.00;;;;;;;2.54;100.00;100223.06;6181497;23;20012;-77
2022/12/26 07:19:06;;;;;;;0.10;0.10;;;;;;;2.38;100.00;100205.53;6210110;23;20040;-77
2022/12/26 07:21:34;;;;;;;0.00;0.00;;;;;;;2.43;100.00;100226.47;6211582;23;20008;-76
2022/12/26 07:24:01;;;;;;;0.00;0.00;;;;;;;2.42;100.00;100232.91;6186983;23;20458;-77
2022/12/26 07:26:27;;;;;;;0.00;0.00;;;;;;;2.24;100.00;100220.97;6212330;23;20011;-76
2022/12/26 07:28:56;;;;;;;0.10;0.10;;;;;;;2.30;100.00;100245.44;6208062;23;20312;-77
2022/12/26 07:31:23;;;;;;;0.00;0.00;;;;;;;2.39;100.00;100268.41;6212136;23;20031;-77
2022/12/26 07:33:50;;;;;;;0.00;0.00;;;;;;;2.41;100.00;100277.13;6209168;23;20028;-77
2022/12/26 07:36:16;;;;;;;0.00;0.00;;;;;;;2.38;100.00;100275.69;6186106;23;20032;-78
2022/12/26 07:38:44;;;;;;;0.10;0.10;;;;;;;2.47;100.00;100281.69;6207664;23;20011;-76
2022/12/26 07:43:54;;;;;;;0.10;0.10;;;;;;;2.85;100.00;100301.56;6207284;23;20023;-78
2022/12/26 07:46:20;;;;;;;0.10;0.10;;;;;;;2.92;100.00;100297.81;6212224;23;20008;-77
2022/12/26 07:48:45;;;;;;;0.00;0.00;;;;;;;3.21;100.00;100322.50;6182439;23;20008;-76
2022/12/26 07:51:11;;;;;;;0.00;0.00;;;;;;;3.34;100.00;100331.56;6185378;23;20323;-76
2022/12/26 07:53:37;;;;;;;0.00;0.00;;;;;;;3.33;100.00;100314.53;6211795;23;20004;-77
2022/12/26 07:56:05;;;;;;;0.00;0.00;;;;;;;3.40;100.00;100315.31;6183318;23;20111;-76
2022/12/26 07:58:31;;;;;;;0.00;0.00;;;;;;;3.48;100.00;100325.00;6211712;23;20078;-78
2022/12/26 08:01:01;;;;;;;0.10;0.10;;;;;;;3.57;100.00;100337.19;6184600;23;20005;-78
2022/12/26 08:03:27;;;;;;;0.00;0.00;;;;;;;3.60;100.00;100336.75;6213351;23;20001;-79
2022/12/26 08:05:56;;;;;;;0.00;0.00;;;;;;;3.53;100.00;100327.88;6187440;23;20015;-78
2022/12/26 08:08:21;;;;;;;0.10;0.10;;;;;;;3.57;100.00;100341.78;6210355;23;20044;-78
2022/12/26 08:11:00;;;;;;;0.00;0.00;;;;;;;3.43;100.00;100335.66;6213549;23;20317;-78
2022/12/26 08:13:27;;;;;;;0.10;0.10;;;;;;;3.45;100.00;100353.31;6207728;23;20146;-77
2022/12/26 09:19:45;;;;;;;0.00;0.00;;;;;;;3.38;100.00;100467.97;5793056;24;20021;-78
2022/12/26 09:32:56;;;;;;;0.10;0.10;;;;;;;3.94;100.00;100523.13;5914730;24;20033;-77
2022/12/26 09:36:02;;;;;;;;;;;;;;;;;;;;;
2022/12/26 09:39:03;;;;;;;;;;;;;;;;;;;;;
2022/12/26 09:42:09;;;;;;;;;;;;;;;;;;;;;
2022/12/26 10:14:02;;;;;;;0.00;0.00;;;;;;;20.95;88.44;100602.66;5826282;24;20033;-81
2022/12/26 10:30:49;;;;;;;0.00;0.00;;;;;;;22.78;82.41;100623.72;5791719;24;20026;-86
2022/12/26 10:33:24;;;;;;;0.00;0.00;;;;;;;23.44;79.62;100616.41;5889066;23;20032;-82
2022/12/26 10:36:14;;;;;;;0.00;0.00;;;;;;;23.34;80.40;100620.47;6173979;23;20009;-80
2022/12/26 10:38:49;;;;;;;0.00;0.00;;;;;;;23.07;78.62;100630.31;6149579;23;20001;-81
2022/12/26 10:41:42;;;;;;;0.00;0.00;;;;;;;22.67;78.58;100630.88;6135134;23;20033;-82
2022/12/26 10:44:14;;;;;;;0.00;0.00;;;;;;;21.53;80.90;100625.34;6159039;23;20108;-84
2022/12/26 10:47:01;;;;;;;0.00;0.00;;;;;;;21.29;80.30;100643.44;6152590;23;20660;-82
2022/12/26 10:49:29;;;;;;;0.00;0.00;;;;;;;20.75;80.08;100600.28;6150967;23;20004;-81
2022/12/26 10:51:58;;;;;;;0.00;0.00;;;;;;;21.38;83.48;100635.88;6127768;23;20013;-81
2022/12/26 10:54:41;;;;;;;0.00;0.00;;;;;;;18.48;77.53;100630.13;6149861;23;20005;-81
2022/12/26 10:57:10;;;;;;;0.00;0.00;;;;;;;18.55;93.87;100649.09;6158140;23;20447;-82
2022/12/26 10:59:48;;;;;;;0.00;0.00;;;;;;;20.17;84.89;100644.06;6155965;23;20013;-82
2022/12/26 11:02:22;;;;;;;0.00;0.00;;;;;;;17.89;80.85;100641.97;6160766;23;20012;-82
2022/12/26 11:05:22;;;;;;;0.00;0.00;;;;;;;14.94;88.38;100646.78;6187536;23;20016;-84
2022/12/26 11:07:52;;;;;;;0.00;0.00;;;;;;;13.23;89.39;100632.34;6200013;23;20012;-82
2022/12/26 11:10:27;;;;;;;0.00;0.00;;;;;;;12.49;96.17;100628.31;6183419;23;20001;-81
2022/12/26 11:13:27;;;;;;;0.00;0.00;;;;;;;11.92;99.21;100641.91;6182746;23;20010;-81
2022/12/26 11:16:03;;;;;;;;;;;;;;;;;;;;;
2022/12/26 11:19:33;;;;;;;0.00;0.00;;;;;;;10.60;100.00;100617.13;6185718;23;20494;-79
2022/12/26 11:22:38;;;;;;;;;;;;;;;;;;;;;
2022/12/26 11:25:07;;;;;;;0.00;0.00;;;;;;;10.06;100.00;100649.91;6119031;23;20702;-82
2022/12/26 11:27:33;;;;;;;0.00;0.00;;;;;;;10.48;100.00;100652.84;6095513;23;20009;-82
2022/12/26 11:30:13;;;;;;;0.00;0.00;;;;;;;13.62;100.00;100661.09;6111911;23;20004;-82
2022/12/26 11:32:54;;;;;;;;;;;;;;;;;;;;;
2022/12/26 11:35:33;;;;;;;0.00;0.00;;;;;;;15.44;90.16;100646.53;6196196;23;20008;-80
2022/12/26 11:38:33;;;;;;;0.00;0.00;;;;;;;14.71;85.99;100644.78;6215065;23;20000;-79
2022/12/26 11:41:33;;;;;;;0.00;0.00;;;;;;;17.85;87.04;100624.34;6211628;23;20040;-82
2022/12/26 11:44:58;;;;;;;;;;;;;;;;;;;;;
2022/12/26 12:05:23;;;;;;;0.00;0.00;;;;;;;23.29;80.57;100667.31;5992436;23;20028;-81
2022/12/26 12:25:49;;;;;;;;;;;;;;;;;;;;;
2022/12/26 12:36:20;;;;;;;;;;;;;;;;;;;;;
2022/12/26 12:39:05;;;;;;;0.00;0.00;;;;;;;10.17;100.00;100673.53;5867675;24;20077;-81
2022/12/26 12:41:43;;;;;;;0.00;0.00;;;;;;;12.75;100.00;100679.34;6089967;23;20013;-81
2022/12/26 12:44:21;;;;;;;0.00;0.00;;;;;;;17.91;96.37;100678.47;6212854;23;20009;-81
2022/12/26 12:47:13;;;;;;;0.10;0.10;;;;;;;22.74;78.85;100695.25;6211178;23;20032;-82
2022/12/26 12:50:00;;;;;;;0.00;0.00;;;;;;;24.77;67.58;100685.88;6209631;23;20026;-81
2022/12/26 12:52:45;;;;;;;0.00;0.00;;;;;;;25.74;68.54;100688.41;6213224;23;20336;-81
2022/12/26 12:56:09;;;;;;;0.03;0.03;;;;;;;26.29;71.05;100692.09;6210176;23;20039;-78
2022/12/26 12:59:02;;;;;;;;;;;;;;;;;;;;;
2022/12/26 13:01:57;;;;;;;0.05;0.05;;;;;;;26.80;67.90;100677.16;6216633;23;20052;-79
2022/12/26 13:05:11;;;;;;;;;;;;;;;;;;;;;
2022/12/26 13:08:17;;;;;;;;;;;;;;;;;;;;;
2022/12/26 13:11:39;;;;;;;0.00;0.00;;;;;;;25.19;73.42;100691.00;6196778;23;20091;-76
2022/12/26 13:18:41;;;;;;;0.00;0.00;;;;;;;24.81;73.15;100701.59;6064724;23;20069;-77
2022/12/26 13:21:54;;;;;;;;;;;;;;;;;;;;;
2022/12/26 13:25:33;;;;;;;;;;;;;;;;;;;;;
2022/12/26 13:28:26;;;;;;;0.00;0.00;;;;;;;24.68;73.59;100681.25;6031571;23;20090;-77
2022/12/26 13:45:33;;;;;;;0.00;0.00;;;;;;;24.59;72.34;100683.41;5876021;24;20053;-84
2022/12/26 13:49:29;;;;;;;0.00;0.00;;;;;;;23.10;74.53;100684.56;5908369;24;20005;-83
2022/12/26 13:52:18;;;;;;;;;;;;;;;;;;;;;
2022/12/26 13:54:56;;;;;;;0.00;0.00;;;;;;;21.23;68.97;100683.69;5909290;23;20090;-77
2022/12/26 13:57:53;;;;;;;;;;;;;;;;;;;;;
2022/12/26 14:01:33;;;;;;;;;;;;;;;;;;;;;
2022/12/26 14:04:18;;;;;;;0.00;0.00;;;;;;;15.69;89.28;100661.91;6058484;23;20026;-77
2022/12/26 14:07:03;;;;;;;0.00;0.00;;;;;;;17.52;100.00;100671.50;6063203;23;20430;-77
2022/12/26 14:10:53;;;;;;;;;;;;;;;;;;;;;
2022/12/26 14:13:40;;;;;;;0.00;0.00;;;;;;;19.68;79.79;100660.78;6078860;23;20016;-76
2022/12/26 14:16:50;;;;;;;0.00;0.00;;;;;;;19.70;85.63;100664.03;6068846;23;20006;-76
2022/12/26 14:20:00;;;;;;;;;;;;;;;;;;;;;
2022/12/26 14:22:55;;;;;;;0.00;0.00;;;;;;;21.06;76.74;100677.03;6213317;23;20088;-77
2022/12/26 14:25:53;;;;;;;;;;;;;;;;;;;;;
2022/12/26 14:28:41;;;;;;;0.00;0.00;;;;;;;21.32;85.98;100690.06;6211626;23;20084;-77
2022/12/26 14:35:45;;;;;;;;;;;;;;;;;;;;;
2022/12/26 14:38:44;;;;;;;0.03;0.03;;;;;;;19.74;81.93;100703.03;6152020;23;20062;-77
2022/12/26 14:44:28;;;;;;;0.00;0.00;;;;;;;19.54;84.86;100704.47;6208112;23;20015;-77
2022/12/26 14:47:00;;;;;;;0.00;0.00;;;;;;;18.94;81.53;100719.59;6187854;23;20012;-77
2022/12/26 14:49:41;;;;;;;0.00;0.00;;;;;;;16.88;80.28;100718.22;6208527;23;20008;-78
2022/12/26 14:52:42;;;;;;;;;;;;;;;;;;;;;
2022/12/26 14:56:06;;;;;;;0.00;0.00;;;;;;;13.55;96.38;100721.84;6214399;23;20084;-78
2022/12/26 14:58:42;;;;;;;0.00;0.00;;;;;;;12.43;100.00;100717.19;6209371;23;20027;-78
2022/12/26 15:01:18;;;;;;;;;;;;;;;;;;;;;
2022/12/26 15:03:58;;;;;;;0.00;0.00;;;;;;;10.88;100.00;100720.97;6212925;23;20695;-78
2022/12/26 15:07:29;;;;;;;;;;;;;;;;;;;;;
2022/12/26 15:16:53;;;;;;;;;;;;;;;;;;;;;
2022/12/26 15:19:56;;;;;;;0.00;0.00;;;;;;;8.66;100.00;100747.28;6214860;23;20075;-76
2022/12/26 15:22:59;;;;;;;0.10;0.10;;;;;;;8.38;100.00;100757.09;6209798;23;20008;-77
2022/12/26 15:25:24;;;;;;;0.00;0.00;;;;;;;8.25;100.00;100765.56;6207317;23;20009;-76
2022/12/26 15:28:43;;;;;;;0.00;0.00;;;;;;;8.25;100.00;100760.97;6210940;23;20135;-79
2022/12/26 15:31:24;;;;;;;0.00;0.00;;;;;;;7.97;100.00;100759.00;6208996;23;20048;-77
2022/12/26 15:33:58;;;;;;;0.00;0.00;;;;;;;7.55;100.00;100748.31;6206347;23;20083;-78
2022/12/26 15:36:50;;;;;;;0.00;0.00;;;;;;;7.29;100.00;100750.47;6208781;23;20305;-76
2022/12/26 15:39:37;;;;;;;0.00;0.00;;;;;;;7.03;100.00;100752.56;6203743;23;20494;-80
2022/12/26 15:42:44;;;;;;;0.00;0.00;;;;;;;6.85;100.00;100767.06;6211349;23;20015;-75
2022/12/26 15:48:59;;;;;;;0.00;0.00;;;;;;;6.45;100.00;100768.50;6207972;23;20001;-77
2022/12/26 15:51:51;;;;;;;0.00;0.00;;;;;;;6.25;100.00;100768.75;6209990;23;20095;-79
2022/12/26 15:55:14;;;;;;;0.00;0.00;;;;;;;5.88;100.00;100744.28;6210862;23;20000;-79
2022/12/26 15:58:29;;;;;;;0.00;0.00;;;;;;;5.65;100.00;100758.56;6210886;23;20015;-79
2022/12/26 16:01:35;;;;;;;0.00;0.00;;;;;;;5.51;100.00;100767.91;6198845;23;20001;-78
2022/12/26 16:04:31;;;;;;;0.00;0.00;;;;;;;5.13;100.00;100739.06;6214220;23;20024;-79
2022/12/26 16:07:07;;;;;;;0.00;0.00;;;;;;;5.05;100.00;100737.44;6178128;23;20091;-77
2022/12/26 16:09:48;;;;;;;0.00;0.00;;;;;;;4.95;100.00;100748.78;6209802;23;20028;-78
2022/12/26 16:12:47;;;;;;;;;;;;;;;;;;;;;
2022/12/26 16:15:31;;;;;;;0.00;0.00;;;;;;;4.66;100.00;100750.25;6210836;23;20104;-79
2022/12/26 16:24:56;;;;;;;0.00;0.00;;;;;;;4.31;100.00;100759.63;6204024;23;20083;-77
2022/12/26 16:27:27;;;;;;;0.00;0.00;;;;;;;4.29;100.00;100761.72;6177380;23;20329;-75
2022/12/26 16:30:09;;;;;;;;;;;;;;;;;;;;;
2022/12/26 16:32:43;;;;;;;0.00;0.00;;;;;;;4.17;100.00;100768.84;6212137;23;20390;-77
2022/12/26 16:35:30;;;;;;;0.00;0.00;;;;;;;4.23;100.00;100792.34;6208715;23;20027;-79
2022/12/26 16:38:07;;;;;;;0.00;0.00;;;;;;;4.14;100.00;100783.63;6212472;23;20009;-77
2022/12/26 16:40:42;;;;;;;0.00;0.00;;;;;;;4.02;100.00;100779.94;6210645;23;20004;-77
2022/12/26 16:44:07;;;;;;;0.00;0.00;;;;;;;3.97;100.00;100786.00;6206939;23;20009;-77
2022/12/26 16:50:31;;;;;;;;;;;;;;;;;;;;;
2022/12/26 16:53:45;;;;;;;0.00;0.00;;;;;;;3.79;100.00;100804.78;6178403;23;20066;-77
2022/12/26 16:57:35;;;;;;;;;;;;;;;;;;;;;
2022/12/26 17:00:34;;;;;;;;;;;;;;;;;;;;;
2022/12/26 17:03:46;;;;;;;0.00;0.00;;;;;;;3.62;100.00;100810.63;6061896;23;20094;-79
2022/12/26 17:06:32;;;;;;;0.00;0.00;;;;;;;3.53;100.00;100811.88;6006467;23;20123;-78
2022/12/26 17:09:50;;;;;;;;;;;;;;;;;;;;;
2022/12/26 17:13:07;;;;;;;0.10;0.10;;;;;;;3.53;100.00;100822.69;6004823;23;20094;-75
2022/12/26 17:16:10;;;;;;;0.10;0.10;;;;;;;3.25;100.00;100783.22;6001810;23;20031;-76
2022/12/26 17:19:43;;;;;;;;;;;;;;;;;;;;;
2022/12/26 17:23:10;;;;;;;;;;;;;;;;;;;;;
2022/12/26 17:29:58;;;;;;;0.00;0.00;;;;;;;3.29;100.00;100791.75;6013915;23;20012;-77
2022/12/26 17:32:52;;;;;;;;;;;;;;;;;;;;;
2022/12/26 17:35:29;;;;;;;0.00;0.00;;;;;;;3.34;100.00;100812.75;6181554;23;20083;-77
2022/12/26 17:38:17;;;;;;;0.00;0.00;;;;;;;3.28;100.00;100804.41;6157898;23;20009;-78
2022/12/26 17:41:04;;;;;;;0.00;0.00;;;;;;;3.19;100.00;100797.56;6155844;23;20000;-78
2022/12/26 17:44:38;;;;;;;;;;;;;;;;;;;;;
2022/12/26 17:47:00;;;;;;;0.00;0.00;;;;;;;3.22;100.00;100820.66;6181886;23;20432;-78
2022/12/26 17:49:44;;;;;;;0.03;0.03;;;;;;;3.16;100.00;100808.78;6179624;23;20015;-80
2022/12/26 17:52:39;;;;;;;0.05;0.05;;;;;;;2.99;100.00;100778.63;6156041;23;20020;-77
2022/12/26 17:58:41;;;;;;;0.00;0.00;;;;;;;3.02;100.00;100815.22;6180228;23;20013;-76
2022/12/26 18:01:16;;;;;;;;;;;;;;;;;;;;;
2022/12/26 18:14:37;;;;;;;;;;;;;;;;;;;;;
2022/12/26 18:17:17;;;;;;;0.00;0.00;;;;;;;2.92;100.00;100838.09;6181082;23;20092;-77
2022/12/26 18:19:42;;;;;;;0.00;0.00;;;;;;;3.00;100.00;100852.44;6207833;23;20005;-76
2022/12/26 18:25:34;;;;;;;;;;;;;;;;;;;;;
2022/12/26 18:28:00;;;;;;;0.00;0.00;;;;;;;2.77;100.00;100840.13;6216082;23;20692;-74
2022/12/26 18:30:38;;;;;;;0.00;0.00;;;;;;;2.83;100.00;100850.09;6183097;23;20044;-74
2022/12/26 18:33:08;;;;;;;0.00;0.00;;;;;;;2.77;100.00;100845.53;6190131;23;20016;-75
2022/12/26 18:36:10;;;;;;;0.00;0.00;;;;;;;2.84;100.00;100861.75;6210162;23;20008;-75
2022/12/26 18:38:27;;;;;;;0.00;0.00;;;;;;;2.78;100.00;100864.22;6212673;23;20039;-75
2022/12/26 18:42:09;;;;;;;;;;;;;;;;;;;;;
2022/12/26 18:51:24;;;;;;;;;;;;;;;;;;;;;
2022/12/26 18:53:59;;;;;;;0.00;0.00;;;;;;;2.70;100.00;100877.06;6124944;23;19932;-77
2022/12/26 19:15:38;;;;;;;;;;;;;;;;;;;;;
2022/12/26 19:32:52;;;;;;;0.00;0.00;;;;;;;2.68;100.00;100928.59;5789495;24;20142;-81
2022/12/26 19:39:45;;;;;;;0.00;0.00;;;;;;;2.61;100.00;100896.19;5722595;24;20051;-80
2022/12/26 19:43:08;;;;;;;;;;;;;;;;;;;;;
2022/12/26 19:46:36;;;;;;;0.00;0.00;;;;;;;2.84;100.00;100943.63;5789745;24;20106;-76
2022/12/26 19:53:05;;;;;;;0.00;0.00;;;;;;;2.70;100.00;100922.97;5767399;24;20038;-77
2022/12/26 20:16:58;;;;;;;0.00;0.00;;;;;;;2.75;100.00;100969.13;5866946;24;20761;-78
2022/12/26 20:20:01;;;;;;;0.00;0.00;;;;;;;2.65;100.00;100953.31;5923144;24;20005;-77
2022/12/26 20:26:39;;;;;;;0.10;0.10;;;;;;;2.59;100.00;100951.41;5979598;24;20012;-82
2022/12/26 20:29:25;;;;;;;0.00;0.00;;;;;;;2.59;100.00;100965.72;5963597;23;20034;-78
2022/12/26 20:34:47;;;;;;;0.00;0.00;;;;;;;2.52;100.00;100966.75;6112352;23;20798;-76
2022/12/26 20:37:38;;;;;;;;;;;;;;;;;;;;;
2022/12/26 20:40:13;;;;;;;0.10;0.10;;;;;;;2.60;100.00;100972.81;6151718;23;20129;-77
2022/12/26 20:43:02;;;;;;;0.00;0.00;;;;;;;2.62;100.00;100965.31;6157158;23;20537;-77
2022/12/26 20:49:01;;;;;;;;;;;;;;;;;;;;;
2022/12/26 20:51:46;;;;;;;0.00;0.00;;;;;;;2.50;100.00;100980.44;6183454;23;20081;-76
2022/12/26 20:55:08;;;;;;;0.00;0.00;;;;;;;2.56;100.00;100998.53;6124504;23;20320;-77
2022/12/26 20:57:33;;;;;;;0.00;0.00;;;;;;;2.42;100.00;100976.03;6155196;23;20016;-77
2022/12/26 21:00:43;;;;;;;0.00;0.00;;;;;;;2.61;100.00;101009.59;6154009;23;20369;-78
2022/12/26 21:03:44;;;;;;;;;;;;;;;;;;;;;
2022/12/26 21:18:55;;;;;;;0.00;0.00;;;;;;;2.67;100.00;101031.41;6204828;22;20025;-77
2022/12/26 21:25:03;;;;;;;0.00;0.00;;;;;;;2.71;100.00;101025.41;6173095;23;20004;-77
2022/12/26 21:27:42;;;;;;;0.00;0.00;;;;;;;2.58;100.00;101015.34;6211581;23;20001;-77
2022/12/26 21:30:17;;;;;;;0.00;0.00;;;;;;;2.50;100.00;101007.44;6187846;23;20428;-78
2022/12/26 21:33:06;;;;;;;;;;;;;;;;;;;;;
2022/12/26 21:35:49;;;;;;;;;;;;;;;;;;;;;
2022/12/26 21:38:54;;;;;;;;;;;;;;;;;;;;;
2022/12/26 21:48:45;;;;;;;;;;;;;;;;;;;;;
2022/12/26 22:09:22;;;;;;;;;;;;;;;;;;;;;
2022/12/26 22:16:18;;;;;;;0.00;0.00;;;;;;;2.81;100.00;101067.44;6042644;23;20025;-76
2022/12/26 22:19:31;;;;;;;0.00;0.00;;;;;;;2.67;100.00;101039.50;6017131;23;20337;-77
2022/12/26 22:22:48;;;;;;;;;;;;;;;;;;;;;
2022/12/26 22:28:38;;;;;;;0.00;0.00;;;;;;;2.82;100.00;101080.75;6125254;23;20017;-80
2022/12/26 22:31:14;;;;;;;0.00;0.00;;;;;;;2.79;100.00;101089.25;6153164;23;20001;-78
2022/12/26 22:34:55;;;;;;;0.00;0.00;;;;;;;2.61;100.00;101054.63;6123843;23;20309;-81